sensor_id;sensor_type;location;lat;lon;timestamp;temperature;humidity
7159;DHT22;63175;52.374;13.132;2023-07-20T00:00:06;19.60;99.90
7159;DHT22;63175;52.374;13.132;2023-07-20T00:02:33;19.70;99.90
7159;DHT22;63175;52.374;13.132;2023-07-20T00:05:00;19.60;99.90
7159;DHT22;63175;52.374;13.132;2023-07-20T00:07:26;19.60;99.90
7159;DHT22;63175;52.374;13.132;2023-07-20T00:09:54;19.50;99.90
7159;DHT22;63175;52.374;13.132;2023-07-20T00:12:22;19.50;99.90
7159;DHT22;63175;52.374;13.132;2023-07-20T00:14:49;19.50;99.90
7159;DHT22;63175;52.374;13.132;2023-07-20T00:17:19;19.50;99.90
7159;DHT22;63175;52.374;13.132;2023-07-20T00:19:45;19.50;99.90
7159;DHT22;63175;52.374;13.132;2023-07-20T00:22:12;19.50;99.90
7159;DHT22;63175;52.374;13.132;2023-07-20T00:24:39;19.50;99.90
7159;DHT22;63175;52.374;13.132;2023-07-20T00:27:06;19.40;99.90
7159;DHT22;63175;52.374;13.132;2023-07-20T00:29:34;19.40;99.90
7159;DHT22;63175;52.374;13.132;2023-07-20T00:32:02;19.40;99.90
7159;DHT22;63175;52.374;13.132;2023-07-20T00:34:30;19.40;99.90
7159;DHT22;63175;52.374;13.132;2023-07-20T00:36:57;19.40;99.90
7159;DHT22;63175;52.374;13.132;2023-07-20T00:39:24;19.40;99.90
7159;DHT22;63175;52.374;13.132;2023-07-20T00:41:51;19.40;99.90
7159;DHT22;63175;52.374;13.132;2023-07-20T00:44:17;19.30;99.90
7159;DHT22;63175;52.374;13.132;2023-07-20T00:46:46;19.30;99.90
7159;DHT22;63175;52.374;13.132;2023-07-20T00:49:13;19.30;99.90
7159;DHT22;63175;52.374;13.132;2023-07-20T00:51:40;19.30;99.90
7159;DHT22;63175;52.374;13.132;2023-07-20T00:54:08;19.20;99.90
7159;DHT22;63175;52.374;13.132;2023-07-20T00:56:35;19.20;99.90
7159;DHT22;63175;52.374;13.132;2023-07-20T00:59:02;19.30;99.90
7159;DHT22;63175;52.374;13.132;2023-07-20T01:01:29;19.20;99.90
7159;DHT22;63175;52.374;13.132;2023-07-20T01:03:57;19.20;99.90
7159;DHT22;63175;52.374;13.132;2023-07-20T01:06:29;19.20;99.90
7159;DHT22;63175;52.374;13.132;2023-07-20T01:09:06;19.10;99.90
7159;DHT22;63175;52.374;13.132;2023-07-20T01:11:37;19.10;99.90
7159;DHT22;63175;52.374;13.132;2023-07-20T01:14:05;19.10;99.90
7159;DHT22;63175;52.374;13.132;2023-07-20T01:16:33;19.10;99.90
7159;DHT22;63175;52.374;13.132;2023-07-20T01:19:01;19.10;99.90
7159;DHT22;63175;52.374;13.132;2023-07-20T01:21:41;19.00;99.90
7159;DHT22;63175;52.374;13.132;2023-07-20T01:27:32;19.10;99.90
7159;DHT22;63175;52.374;13.132;2023-07-20T01:30:20;19.10;99.90
7159;DHT22;63175;52.374;13.132;2023-07-20T01:32:54;19.00;99.90
7159;DHT22;63175;52.374;13.132;2023-07-20T01:35:24;19.00;99.90
7159;DHT22;63175;52.374;13.132;2023-07-20T01:37:54;19.00;99.90
7159;DHT22;63175;52.374;13.132;2023-07-20T01:40:22;19.00;99.90
7159;DHT22;63175;52.374;13.132;2023-07-20T01:42:51;18.90;99.90
7159;DHT22;63175;52.374;13.132;2023-07-20T01:45:18;18.90;99.90
7159;DHT22;63175;52.374;13.132;2023-07-20T01:47:45;18.90;99.90
7159;DHT22;63175;52.374;13.132;2023-07-20T01:50:13;18.90;99.90
7159;DHT22;63175;52.374;13.132;2023-07-20T01:52:40;18.90;99.90
7159;DHT22;63175;52.374;13.132;2023-07-20T01:55:08;18.90;99.90
7159;DHT22;63175;52.374;13.132;2023-07-20T01:57:35;18.90;99.90
7159;DHT22;63175;52.374;13.132;2023-07-20T02:00:03;18.90;99.90
7159;DHT22;63175;52.374;13.132;2023-07-20T02:02:30;18.90;99.90
7159;DHT22;63175;52.374;13.132;2023-07-20T02:04:57;18.80;99.90
7159;DHT22;63175;52.374;13.132;2023-07-20T02:07:25;18.80;99.90
7159;DHT22;63175;52.374;13.132;2023-07-20T02:09:52;18.80;99.90
7159;DHT22;63175;52.374;13.132;2023-07-20T02:12:19;18.70;99.90
7159;DHT22;63175;52.374;13.132;2023-07-20T02:14:46;18.70;99.90
7159;DHT22;63175;52.374;13.132;2023-07-20T02:17:13;18.70;99.90
7159;DHT22;63175;52.374;13.132;2023-07-20T02:19:40;18.70;99.90
7159;DHT22;63175;52.374;13.132;2023-07-20T02:22:07;18.70;99.90
7159;DHT22;63175;52.374;13.132;2023-07-20T02:24:35;18.70;99.90
7159;DHT22;63175;52.374;13.132;2023-07-20T02:27:03;18.60;99.90
7159;DHT22;63175;52.374;13.132;2023-07-20T02:29:30;18.60;99.90
7159;DHT22;63175;52.374;13.132;2023-07-20T02:31:57;18.60;99.90
7159;DHT22;63175;52.374;13.132;2023-07-20T02:34:24;18.60;99.90
7159;DHT22;63175;52.374;13.132;2023-07-20T02:36:50;18.60;99.90
7159;DHT22;63175;52.374;13.132;2023-07-20T02:39:17;18.50;99.90
7159;DHT22;63175;52.374;13.132;2023-07-20T02:41:45;18.50;99.90
7159;DHT22;63175;52.374;13.132;2023-07-20T02:44:14;18.50;99.90
7159;DHT22;63175;52.374;13.132;2023-07-20T02:46:41;18.40;99.90
7159;DHT22;63175;52.374;13.132;2023-07-20T02:49:08;18.40;99.90
7159;DHT22;63175;52.374;13.132;2023-07-20T02:51:35;18.40;99.90
7159;DHT22;63175;52.374;13.132;2023-07-20T02:54:02;18.40;99.90
7159;DHT22;63175;52.374;13.132;2023-07-20T02:56:29;18.40;99.90
7159;DHT22;63175;52.374;13.132;2023-07-20T02:58:57;18.40;99.90
7159;DHT22;63175;52.374;13.132;2023-07-20T03:01:24;18.30;99.90
7159;DHT22;63175;52.374;13.132;2023-07-20T03:03:52;18.30;99.90
7159;DHT22;63175;52.374;13.132;2023-07-20T03:06:19;18.40;99.90
7159;DHT22;63175;52.374;13.132;2023-07-20T03:08:46;18.40;99.90
7159;DHT22;63175;52.374;13.132;2023-07-20T03:11:14;18.40;99.90
7159;DHT22;63175;52.374;13.132;2023-07-20T03:13:41;18.40;99.90
7159;DHT22;63175;52.374;13.132;2023-07-20T03:16:10;18.40;99.90
7159;DHT22;63175;52.374;13.132;2023-07-20T03:18:37;18.40;99.90
7159;DHT22;63175;52.374;13.132;2023-07-20T03:21:04;18.40;99.90
7159;DHT22;63175;52.374;13.132;2023-07-20T03:23:32;18.40;99.90
7159;DHT22;63175;52.374;13.132;2023-07-20T03:25:59;18.40;99.90
7159;DHT22;63175;52.374;13.132;2023-07-20T03:28:25;18.40;99.90
7159;DHT22;63175;52.374;13.132;2023-07-20T03:30:55;18.40;99.90
7159;DHT22;63175;52.374;13.132;2023-07-20T03:33:25;18.40;99.90
7159;DHT22;63175;52.374;13.132;2023-07-20T03:35:53;18.40;99.90
7159;DHT22;63175;52.374;13.132;2023-07-20T03:38:20;18.40;99.90
7159;DHT22;63175;52.374;13.132;2023-07-20T03:40:50;18.40;99.90
7159;DHT22;63175;52.374;13.132;2023-07-20T03:43:17;18.50;99.90
7159;DHT22;63175;52.374;13.132;2023-07-20T03:45:44;18.50;99.90
7159;DHT22;63175;52.374;13.132;2023-07-20T03:48:14;18.50;99.90
7159;DHT22;63175;52.374;13.132;2023-07-20T03:50:44;18.50;99.90
7159;DHT22;63175;52.374;13.132;2023-07-20T03:53:10;18.50;99.90
7159;DHT22;63175;52.374;13.132;2023-07-20T03:55:37;18.50;99.90
7159;DHT22;63175;52.374;13.132;2023-07-20T03:58:06;18.50;99.90
7159;DHT22;63175;52.374;13.132;2023-07-20T04:00:33;18.50;99.90
7159;DHT22;63175;52.374;13.132;2023-07-20T04:03:00;18.50;99.90
7159;DHT22;63175;52.374;13.132;2023-07-20T04:05:27;18.50;99.90
7159;DHT22;63175;52.374;13.132;2023-07-20T04:07:55;18.50;99.90
7159;DHT22;63175;52.374;13.132;2023-07-20T04:10:22;18.50;99.90
7159;DHT22;63175;52.374;13.132;2023-07-20T04:12:49;18.50;99.90
7159;DHT22;63175;52.374;13.132;2023-07-20T04:15:16;18.50;99.90
7159;DHT22;63175;52.374;13.132;2023-07-20T04:17:43;19.30;99.90
7159;DHT22;63175;52.374;13.132;2023-07-20T04:20:11;18.40;99.90
7159;DHT22;63175;52.374;13.132;2023-07-20T04:22:38;18.40;99.90
7159;DHT22;63175;52.374;13.132;2023-07-20T04:25:07;18.40;99.90
7159;DHT22;63175;52.374;13.132;2023-07-20T04:27:35;18.40;99.90
7159;DHT22;63175;52.374;13.132;2023-07-20T04:30:02;18.40;99.90
7159;DHT22;63175;52.374;13.132;2023-07-20T04:32:29;18.40;99.90
7159;DHT22;63175;52.374;13.132;2023-07-20T04:34:59;18.50;99.90
7159;DHT22;63175;52.374;13.132;2023-07-20T04:37:26;18.50;99.90
7159;DHT22;63175;52.374;13.132;2023-07-20T04:39:53;18.50;99.90
7159;DHT22;63175;52.374;13.132;2023-07-20T04:42:21;18.50;99.90
7159;DHT22;63175;52.374;13.132;2023-07-20T04:44:48;18.50;99.90
7159;DHT22;63175;52.374;13.132;2023-07-20T04:47:14;18.50;99.90
7159;DHT22;63175;52.374;13.132;2023-07-20T04:49:41;18.50;99.90
7159;DHT22;63175;52.374;13.132;2023-07-20T04:52:08;18.50;99.90
7159;DHT22;63175;52.374;13.132;2023-07-20T04:54:35;18.50;99.90
7159;DHT22;63175;52.374;13.132;2023-07-20T04:57:02;18.50;99.90
7159;DHT22;63175;52.374;13.132;2023-07-20T04:59:30;18.50;99.90
7159;DHT22;63175;52.374;13.132;2023-07-20T05:01:59;18.60;99.90
7159;DHT22;63175;52.374;13.132;2023-07-20T05:04:26;18.60;99.90
7159;DHT22;63175;52.374;13.132;2023-07-20T05:06:53;18.70;99.90
7159;DHT22;63175;52.374;13.132;2023-07-20T05:09:20;18.70;99.90
7159;DHT22;63175;52.374;13.132;2023-07-20T05:11:48;18.80;99.90
7159;DHT22;63175;52.374;13.132;2023-07-20T05:14:15;18.80;99.90
7159;DHT22;63175;52.374;13.132;2023-07-20T05:16:43;18.80;99.90
7159;DHT22;63175;52.374;13.132;2023-07-20T05:19:10;18.80;99.90
7159;DHT22;63175;52.374;13.132;2023-07-20T05:21:37;18.90;99.90
7159;DHT22;63175;52.374;13.132;2023-07-20T05:24:04;18.90;99.90
7159;DHT22;63175;52.374;13.132;2023-07-20T05:26:31;19.00;99.90
7159;DHT22;63175;52.374;13.132;2023-07-20T05:28:59;19.10;99.90
7159;DHT22;63175;52.374;13.132;2023-07-20T05:31:26;19.00;99.90
7159;DHT22;63175;52.374;13.132;2023-07-20T05:33:54;19.10;99.90
7159;DHT22;63175;52.374;13.132;2023-07-20T05:36:21;19.10;99.90
7159;DHT22;63175;52.374;13.132;2023-07-20T05:38:48;19.10;99.90
7159;DHT22;63175;52.374;13.132;2023-07-20T05:41:14;19.10;99.90
7159;DHT22;63175;52.374;13.132;2023-07-20T05:43:41;19.20;99.90
7159;DHT22;63175;52.374;13.132;2023-07-20T05:46:08;19.30;99.90
7159;DHT22;63175;52.374;13.132;2023-07-20T05:48:35;19.30;99.90
7159;DHT22;63175;52.374;13.132;2023-07-20T05:51:04;19.30;99.90
7159;DHT22;63175;52.374;13.132;2023-07-20T05:53:31;19.30;99.90
7159;DHT22;63175;52.374;13.132;2023-07-20T05:55:57;19.30;99.90
7159;DHT22;63175;52.374;13.132;2023-07-20T05:58:24;19.30;99.90
7159;DHT22;63175;52.374;13.132;2023-07-20T06:00:53;19.30;99.90
7159;DHT22;63175;52.374;13.132;2023-07-20T06:03:20;19.30;99.90
7159;DHT22;63175;52.374;13.132;2023-07-20T06:05:47;19.30;99.90
7159;DHT22;63175;52.374;13.132;2023-07-20T06:08:16;19.20;99.90
7159;DHT22;63175;52.374;13.132;2023-07-20T06:10:43;19.20;99.90
7159;DHT22;63175;52.374;13.132;2023-07-20T06:13:10;19.20;99.90
7159;DHT22;63175;52.374;13.132;2023-07-20T06:15:36;19.30;99.90
7159;DHT22;63175;52.374;13.132;2023-07-20T06:18:04;19.40;99.90
7159;DHT22;63175;52.374;13.132;2023-07-20T06:20:31;19.50;99.90
7159;DHT22;63175;52.374;13.132;2023-07-20T06:22:58;19.60;99.90
7159;DHT22;63175;52.374;13.132;2023-07-20T06:25:26;19.70;99.90
7159;DHT22;63175;52.374;13.132;2023-07-20T06:27:55;20.10;99.90
7159;DHT22;63175;52.374;13.132;2023-07-20T06:30:22;20.10;99.90
7159;DHT22;63175;52.374;13.132;2023-07-20T06:32:49;20.30;99.90
7159;DHT22;63175;52.374;13.132;2023-07-20T06:35:17;20.40;99.90
7159;DHT22;63175;52.374;13.132;2023-07-20T06:37:44;20.50;99.90
7159;DHT22;63175;52.374;13.132;2023-07-20T06:40:11;20.50;99.90
7159;DHT22;63175;52.374;13.132;2023-07-20T06:42:40;20.50;99.90
7159;DHT22;63175;52.374;13.132;2023-07-20T06:45:07;20.60;99.90
7159;DHT22;63175;52.374;13.132;2023-07-20T06:47:34;20.70;99.90
7159;DHT22;63175;52.374;13.132;2023-07-20T06:50:01;20.70;99.90
7159;DHT22;63175;52.374;13.132;2023-07-20T06:52:28;20.70;99.90
7159;DHT22;63175;52.374;13.132;2023-07-20T06:54:55;20.70;99.90
7159;DHT22;63175;52.374;13.132;2023-07-20T06:57:22;20.80;99.90
7159;DHT22;63175;52.374;13.132;2023-07-20T06:59:50;21.00;99.90
7159;DHT22;63175;52.374;13.132;2023-07-20T07:02:17;21.40;99.90
7159;DHT22;63175;52.374;13.132;2023-07-20T07:04:44;21.70;99.90
7159;DHT22;63175;52.374;13.132;2023-07-20T07:07:13;22.00;99.90
7159;DHT22;63175;52.374;13.132;2023-07-20T07:09:40;22.20;99.90
7159;DHT22;63175;52.374;13.132;2023-07-20T07:12:08;22.30;99.90
7159;DHT22;63175;52.374;13.132;2023-07-20T07:14:35;22.30;99.90
7159;DHT22;63175;52.374;13.132;2023-07-20T07:17:03;22.30;99.90
7159;DHT22;63175;52.374;13.132;2023-07-20T07:19:30;22.30;99.80
7159;DHT22;63175;52.374;13.132;2023-07-20T07:21:57;22.30;99.30
7159;DHT22;63175;52.374;13.132;2023-07-20T07:24:24;22.40;99.30
7159;DHT22;63175;52.374;13.132;2023-07-20T07:26:51;22.50;99.10
7159;DHT22;63175;52.374;13.132;2023-07-20T07:29:18;22.50;98.90
7159;DHT22;63175;52.374;13.132;2023-07-20T07:31:44;22.50;98.60
7159;DHT22;63175;52.374;13.132;2023-07-20T07:34:13;22.40;97.90
7159;DHT22;63175;52.374;13.132;2023-07-20T07:36:39;22.30;97.80
7159;DHT22;63175;52.374;13.132;2023-07-20T07:39:06;22.20;97.80
7159;DHT22;63175;52.374;13.132;2023-07-20T07:41:33;22.10;97.70
7159;DHT22;63175;52.374;13.132;2023-07-20T07:44:00;22.20;97.70
7159;DHT22;63175;52.374;13.132;2023-07-20T07:46:27;22.20;97.70
7159;DHT22;63175;52.374;13.132;2023-07-20T07:48:53;22.30;97.70
7159;DHT22;63175;52.374;13.132;2023-07-20T07:51:21;22.30;97.20
7159;DHT22;63175;52.374;13.132;2023-07-20T07:53:48;22.30;97.20
7159;DHT22;63175;52.374;13.132;2023-07-20T07:56:15;22.30;96.60
7159;DHT22;63175;52.374;13.132;2023-07-20T07:58:43;22.20;96.50
7159;DHT22;63175;52.374;13.132;2023-07-20T08:01:09;22.20;96.70
7159;DHT22;63175;52.374;13.132;2023-07-20T08:03:36;22.30;96.60
7159;DHT22;63175;52.374;13.132;2023-07-20T08:06:03;22.40;96.30
7159;DHT22;63175;52.374;13.132;2023-07-20T08:08:32;22.40;95.80
7159;DHT22;63175;52.374;13.132;2023-07-20T08:10:59;22.40;95.30
7159;DHT22;63175;52.374;13.132;2023-07-20T08:13:26;22.50;95.20
7159;DHT22;63175;52.374;13.132;2023-07-20T08:15:53;22.60;95.30
7159;DHT22;63175;52.374;13.132;2023-07-20T08:18:19;22.80;95.00
7159;DHT22;63175;52.374;13.132;2023-07-20T08:20:47;23.00;94.90
7159;DHT22;63175;52.374;13.132;2023-07-20T08:23:14;23.00;94.60
7159;DHT22;63175;52.374;13.132;2023-07-20T08:25:43;22.90;94.60
7159;DHT22;63175;52.374;13.132;2023-07-20T08:28:10;23.00;94.40
7159;DHT22;63175;52.374;13.132;2023-07-20T08:30:41;23.00;93.90
7159;DHT22;63175;52.374;13.132;2023-07-20T08:33:09;23.10;93.50
7159;DHT22;63175;52.374;13.132;2023-07-20T08:35:36;23.20;93.00
7159;DHT22;63175;52.374;13.132;2023-07-20T08:38:03;23.10;92.90
7159;DHT22;63175;52.374;13.132;2023-07-20T08:40:31;23.20;93.10
7159;DHT22;63175;52.374;13.132;2023-07-20T08:43:00;23.10;92.70
7159;DHT22;63175;52.374;13.132;2023-07-20T08:45:27;23.10;92.40
7159;DHT22;63175;52.374;13.132;2023-07-20T08:47:56;23.10;92.40
7159;DHT22;63175;52.374;13.132;2023-07-20T08:50:25;23.10;92.50
7159;DHT22;63175;52.374;13.132;2023-07-20T08:52:52;23.10;92.70
7159;DHT22;63175;52.374;13.132;2023-07-20T08:55:21;23.00;92.80
7159;DHT22;63175;52.374;13.132;2023-07-20T08:57:50;23.10;93.00
7159;DHT22;63175;52.374;13.132;2023-07-20T09:00:20;23.20;93.20
7159;DHT22;63175;52.374;13.132;2023-07-20T09:02:49;23.30;92.70
7159;DHT22;63175;52.374;13.132;2023-07-20T09:05:17;23.60;92.60
7159;DHT22;63175;52.374;13.132;2023-07-20T09:07:46;23.70;92.10
7159;DHT22;63175;52.374;13.132;2023-07-20T09:10:13;24.00;91.00
7159;DHT22;63175;52.374;13.132;2023-07-20T09:12:41;24.30;89.70
7159;DHT22;63175;52.374;13.132;2023-07-20T09:15:10;24.50;86.70
7159;DHT22;63175;52.374;13.132;2023-07-20T09:17:38;24.60;84.30
7159;DHT22;63175;52.374;13.132;2023-07-20T09:20:06;24.50;83.10
7159;DHT22;63175;52.374;13.132;2023-07-20T09:22:37;24.40;84.00
7159;DHT22;63175;52.374;13.132;2023-07-20T09:25:06;24.60;83.30
7159;DHT22;63175;52.374;13.132;2023-07-20T09:27:37;24.80;82.30
7159;DHT22;63175;52.374;13.132;2023-07-20T09:30:05;25.00;81.00
7159;DHT22;63175;52.374;13.132;2023-07-20T09:32:40;25.20;79.20
7159;DHT22;63175;52.374;13.132;2023-07-20T09:35:13;25.20;77.60
7159;DHT22;63175;52.374;13.132;2023-07-20T09:37:41;25.00;76.50
7159;DHT22;63175;52.374;13.132;2023-07-20T09:40:14;24.90;76.40
7159;DHT22;63175;52.374;13.132;2023-07-20T09:42:41;24.70;77.00
7159;DHT22;63175;52.374;13.132;2023-07-20T09:45:09;24.70;77.30
7159;DHT22;63175;52.374;13.132;2023-07-20T09:47:38;24.50;76.70
7159;DHT22;63175;52.374;13.132;2023-07-20T09:50:06;24.30;76.70
7159;DHT22;63175;52.374;13.132;2023-07-20T09:52:38;24.00;77.10
7159;DHT22;63175;52.374;13.132;2023-07-20T09:55:07;23.90;77.60
7159;DHT22;63175;52.374;13.132;2023-07-20T09:57:35;23.70;78.60
7159;DHT22;63175;52.374;13.132;2023-07-20T10:00:03;23.60;79.10
7159;DHT22;63175;52.374;13.132;2023-07-20T10:02:34;23.60;79.30
7159;DHT22;63175;52.374;13.132;2023-07-20T10:05:05;23.50;79.70
7159;DHT22;63175;52.374;13.132;2023-07-20T10:07:35;23.50;79.90
7159;DHT22;63175;52.374;13.132;2023-07-20T10:10:02;23.60;79.00
7159;DHT22;63175;52.374;13.132;2023-07-20T10:12:31;23.60;78.40
7159;DHT22;63175;52.374;13.132;2023-07-20T10:15:07;23.70;78.20
7159;DHT22;63175;52.374;13.132;2023-07-20T10:17:40;23.80;78.40
7159;DHT22;63175;52.374;13.132;2023-07-20T10:20:17;23.90;78.80
7159;DHT22;63175;52.374;13.132;2023-07-20T10:22:48;23.90;79.30
7159;DHT22;63175;52.374;13.132;2023-07-20T10:25:17;24.00;79.80
7159;DHT22;63175;52.374;13.132;2023-07-20T10:27:44;24.20;79.30
7159;DHT22;63175;52.374;13.132;2023-07-20T10:30:12;24.60;79.00
7159;DHT22;63175;52.374;13.132;2023-07-20T10:32:41;25.00;77.80
7159;DHT22;63175;52.374;13.132;2023-07-20T10:35:17;25.30;76.70
7159;DHT22;63175;52.374;13.132;2023-07-20T10:37:48;25.70;75.50
7159;DHT22;63175;52.374;13.132;2023-07-20T10:40:30;26.00;74.10
7159;DHT22;63175;52.374;13.132;2023-07-20T10:42:59;26.00;72.60
7159;DHT22;63175;52.374;13.132;2023-07-20T10:45:42;25.90;72.90
7159;DHT22;63175;52.374;13.132;2023-07-20T10:48:15;25.80;71.50
7159;DHT22;63175;52.374;13.132;2023-07-20T10:50:44;25.50;71.90
7159;DHT22;63175;52.374;13.132;2023-07-20T10:53:12;25.20;72.70
7159;DHT22;63175;52.374;13.132;2023-07-20T10:55:40;25.00;73.30
7159;DHT22;63175;52.374;13.132;2023-07-20T10:58:09;24.70;74.00
7159;DHT22;63175;52.374;13.132;2023-07-20T11:00:37;24.30;74.80
7159;DHT22;63175;52.374;13.132;2023-07-20T11:03:04;24.00;76.10
7159;DHT22;63175;52.374;13.132;2023-07-20T11:05:35;23.70;77.80
7159;DHT22;63175;52.374;13.132;2023-07-20T11:08:11;23.50;79.10
7159;DHT22;63175;52.374;13.132;2023-07-20T11:10:38;23.10;80.40
7159;DHT22;63175;52.374;13.132;2023-07-20T11:13:23;22.80;81.80
7159;DHT22;63175;52.374;13.132;2023-07-20T11:16:04;22.60;83.50
7159;DHT22;63175;52.374;13.132;2023-07-20T11:18:33;22.40;84.70
7159;DHT22;63175;52.374;13.132;2023-07-20T11:21:01;22.30;86.00
7159;DHT22;63175;52.374;13.132;2023-07-20T11:23:31;22.20;87.20
7159;DHT22;63175;52.374;13.132;2023-07-20T11:26:00;22.30;87.50
7159;DHT22;63175;52.374;13.132;2023-07-20T11:28:30;22.60;87.20
7159;DHT22;63175;52.374;13.132;2023-07-20T11:30:57;22.80;86.00
7159;DHT22;63175;52.374;13.132;2023-07-20T11:33:24;23.00;85.00
7159;DHT22;63175;52.374;13.132;2023-07-20T11:35:51;23.20;83.80
7159;DHT22;63175;52.374;13.132;2023-07-20T11:38:18;23.30;82.90
7159;DHT22;63175;52.374;13.132;2023-07-20T11:40:46;23.40;82.80
7159;DHT22;63175;52.374;13.132;2023-07-20T11:43:13;23.50;82.00
7159;DHT22;63175;52.374;13.132;2023-07-20T11:45:40;23.60;81.90
7159;DHT22;63175;52.374;13.132;2023-07-20T11:48:07;23.80;81.60
7159;DHT22;63175;52.374;13.132;2023-07-20T11:50:40;24.20;81.00
7159;DHT22;63175;52.374;13.132;2023-07-20T11:53:08;24.50;79.20
7159;DHT22;63175;52.374;13.132;2023-07-20T11:55:35;24.80;79.20
7159;DHT22;63175;52.374;13.132;2023-07-20T11:58:04;25.00;77.80
7159;DHT22;63175;52.374;13.132;2023-07-20T12:00:31;25.20;76.90
7159;DHT22;63175;52.374;13.132;2023-07-20T12:02:59;25.20;76.50
7159;DHT22;63175;52.374;13.132;2023-07-20T12:05:26;25.10;76.70
7159;DHT22;63175;52.374;13.132;2023-07-20T12:07:54;24.60;76.30
7159;DHT22;63175;52.374;13.132;2023-07-20T12:10:25;24.60;77.10
7159;DHT22;63175;52.374;13.132;2023-07-20T12:12:54;24.30;77.60
7159;DHT22;63175;52.374;13.132;2023-07-20T12:15:24;24.10;78.30
7159;DHT22;63175;52.374;13.132;2023-07-20T12:17:53;23.90;77.20
7159;DHT22;63175;52.374;13.132;2023-07-20T12:20:28;23.70;77.20
7159;DHT22;63175;52.374;13.132;2023-07-20T12:22:57;23.70;77.70
7159;DHT22;63175;52.374;13.132;2023-07-20T12:25:32;24.00;76.60
7159;DHT22;63175;52.374;13.132;2023-07-20T12:28:01;24.40;75.00
7159;DHT22;63175;52.374;13.132;2023-07-20T12:30:30;24.60;74.00
7159;DHT22;63175;52.374;13.132;2023-07-20T12:32:57;24.70;73.30
7159;DHT22;63175;52.374;13.132;2023-07-20T12:35:24;24.90;72.50
7159;DHT22;63175;52.374;13.132;2023-07-20T12:37:51;24.90;71.60
7159;DHT22;63175;52.374;13.132;2023-07-20T12:40:19;24.80;71.60
7159;DHT22;63175;52.374;13.132;2023-07-20T12:42:46;24.70;71.50
7159;DHT22;63175;52.374;13.132;2023-07-20T12:45:13;24.70;72.00
7159;DHT22;63175;52.374;13.132;2023-07-20T12:47:42;25.00;72.10
7159;DHT22;63175;52.374;13.132;2023-07-20T12:50:09;25.30;71.40
7159;DHT22;63175;52.374;13.132;2023-07-20T12:52:36;25.70;70.10
7159;DHT22;63175;52.374;13.132;2023-07-20T12:55:05;25.90;68.30
7159;DHT22;63175;52.374;13.132;2023-07-20T12:57:32;26.20;68.40
7159;DHT22;63175;52.374;13.132;2023-07-20T12:59:59;26.50;67.70
7159;DHT22;63175;52.374;13.132;2023-07-20T13:02:27;26.70;66.80
7159;DHT22;63175;52.374;13.132;2023-07-20T13:04:55;27.00;66.20
7159;DHT22;63175;52.374;13.132;2023-07-20T13:07:29;27.20;65.20
7159;DHT22;63175;52.374;13.132;2023-07-20T13:09:57;27.50;64.50
7159;DHT22;63175;52.374;13.132;2023-07-20T13:12:26;27.50;61.90
7159;DHT22;63175;52.374;13.132;2023-07-20T13:14:52;27.40;60.80
7159;DHT22;63175;52.374;13.132;2023-07-20T13:17:19;27.50;59.40
7159;DHT22;63175;52.374;13.132;2023-07-20T13:19:46;27.70;58.20
7159;DHT22;63175;52.374;13.132;2023-07-20T13:22:14;28.10;58.10
7159;DHT22;63175;52.374;13.132;2023-07-20T13:24:41;28.40;57.00
7159;DHT22;63175;52.374;13.132;2023-07-20T13:27:08;28.80;56.50
7159;DHT22;63175;52.374;13.132;2023-07-20T13:29:35;29.20;55.20
7159;DHT22;63175;52.374;13.132;2023-07-20T13:32:02;29.40;53.60
7159;DHT22;63175;52.374;13.132;2023-07-20T13:34:30;29.60;52.70
7159;DHT22;63175;52.374;13.132;2023-07-20T13:36:57;29.30;52.10
7159;DHT22;63175;52.374;13.132;2023-07-20T13:39:25;29.20;51.70
7159;DHT22;63175;52.374;13.132;2023-07-20T13:41:53;29.20;50.70
7159;DHT22;63175;52.374;13.132;2023-07-20T13:44:20;29.50;50.20
7159;DHT22;63175;52.374;13.132;2023-07-20T13:46:47;29.90;49.80
7159;DHT22;63175;52.374;13.132;2023-07-20T13:49:14;30.40;48.70
7159;DHT22;63175;52.374;13.132;2023-07-20T13:51:41;30.20;47.80
7159;DHT22;63175;52.374;13.132;2023-07-20T13:54:08;29.70;47.90
7159;DHT22;63175;52.374;13.132;2023-07-20T13:56:36;29.20;48.30
7159;DHT22;63175;52.374;13.132;2023-07-20T13:59:03;28.80;48.80
7159;DHT22;63175;52.374;13.132;2023-07-20T14:01:30;28.80;49.40
7159;DHT22;63175;52.374;13.132;2023-07-20T14:03:58;29.40;49.10
7159;DHT22;63175;52.374;13.132;2023-07-20T14:06:25;30.20;47.70
7159;DHT22;63175;52.374;13.132;2023-07-20T14:08:52;30.60;46.10
7159;DHT22;63175;52.374;13.132;2023-07-20T14:11:19;30.30;45.40
7159;DHT22;63175;52.374;13.132;2023-07-20T14:13:47;29.70;46.10
7159;DHT22;63175;52.374;13.132;2023-07-20T14:16:14;29.10;47.50
7159;DHT22;63175;52.374;13.132;2023-07-20T14:18:41;28.60;47.60
7159;DHT22;63175;52.374;13.132;2023-07-20T14:21:08;28.80;48.10
7159;DHT22;63175;52.374;13.132;2023-07-20T14:23:34;29.60;47.20
7159;DHT22;63175;52.374;13.132;2023-07-20T14:26:01;30.50;46.30
7159;DHT22;63175;52.374;13.132;2023-07-20T14:28:30;31.40;45.00
7159;DHT22;63175;52.374;13.132;2023-07-20T14:30:59;32.10;43.60
7159;DHT22;63175;52.374;13.132;2023-07-20T14:33:25;32.70;42.40
7159;DHT22;63175;52.374;13.132;2023-07-20T14:35:52;33.20;41.50
7159;DHT22;63175;52.374;13.132;2023-07-20T14:38:19;33.50;40.90
7159;DHT22;63175;52.374;13.132;2023-07-20T14:40:46;33.80;40.20
7159;DHT22;63175;52.374;13.132;2023-07-20T14:43:13;34.00;39.80
7159;DHT22;63175;52.374;13.132;2023-07-20T14:45:40;34.20;39.50
7159;DHT22;63175;52.374;13.132;2023-07-20T14:48:09;34.20;38.50
7159;DHT22;63175;52.374;13.132;2023-07-20T14:50:35;33.90;38.00
7159;DHT22;63175;52.374;13.132;2023-07-20T14:53:02;33.70;38.40
7159;DHT22;63175;52.374;13.132;2023-07-20T14:55:29;33.50;38.50
7159;DHT22;63175;52.374;13.132;2023-07-20T14:57:56;33.40;38.90
7159;DHT22;63175;52.374;13.132;2023-07-20T15:00:23;33.30;38.90
7159;DHT22;63175;52.374;13.132;2023-07-20T15:02:51;32.90;38.70
7159;DHT22;63175;52.374;13.132;2023-07-20T15:05:23;32.10;39.10
7159;DHT22;63175;52.374;13.132;2023-07-20T15:07:50;31.10;40.00
7159;DHT22;63175;52.374;13.132;2023-07-20T15:10:17;30.30;41.10
7159;DHT22;63175;52.374;13.132;2023-07-20T15:12:44;30.00;42.10
7159;DHT22;63175;52.374;13.132;2023-07-20T15:15:13;29.80;42.50
7159;DHT22;63175;52.374;13.132;2023-07-20T15:17:42;29.80;42.80
7159;DHT22;63175;52.374;13.132;2023-07-20T15:20:12;29.80;42.90
7159;DHT22;63175;52.374;13.132;2023-07-20T15:22:40;29.80;43.10
7159;DHT22;63175;52.374;13.132;2023-07-20T15:25:08;29.80;42.90
7159;DHT22;63175;52.374;13.132;2023-07-20T15:27:37;29.60;42.80
7159;DHT22;63175;52.374;13.132;2023-07-20T15:30:05;29.40;43.10
7159;DHT22;63175;52.374;13.132;2023-07-20T15:32:32;29.20;43.50
7159;DHT22;63175;52.374;13.132;2023-07-20T15:34:59;29.00;44.00
7159;DHT22;63175;52.374;13.132;2023-07-20T15:37:26;28.80;44.10